Vancouver International Airport
CYVR : now visible

Airfield :











YOU CAN JOIN US ON...

 
LOGIN :

Register | Disclaimer

   EN    FR    IT 

 









Legend :    VFR   Marginal VFR   IFR   Intensive IFR   Very Intensive IFR
Visi :
Ceiling :
>= 8 km
>= 3000ft
5 to 8 km
1000 to 3000 ft
1500m to 5 km
500 to 1000 ft
800 to 1500m
200 to 500 ft
< 800m
< 200 ft
Symbols :   Thunderstorms  Fog  Heavy snow  Heavy precipitations  Wind > 20 kt






- Airport Elevation : 14 ft
- IATA code : YVR


CYVR - Vancouver International

CURRENT METAR :
  • 150700Z 28004KT 20SM FEW015 OVC039 05/04 A3003 RMK SC1SC7 SLP170

EXPIRED METARs :
  • 150600Z 30004KT 20SM OVC036 05/04 A3002 RMK SC8 SLP166
  • 150500Z 29004KT 20SM FEW015 OVC039 05/04 A3001 RMK SC1SC7 SLP165

TAF TAF CYVR
Valid from the 15 at 06:00 until the 16 at 12:00 UTC


150540Z 1506/1612 30006KT P6SM SCT008 SCT020 OVC040
TEMPO 1506/1516 4SM -SHRA BR SCT008 OVC020
PROB30 1506/1516 BKN008
FM151600 30006KT P6SM SCT020
TEMPO 1516/1524 BKN020
FM160000 VRB03KT P6SM BKN030
TEMPO 1600/1612 BKN020
BECMG 1601/1603 08008KT RMK NXT FCST BY 150900Z



MET'MAP, your aeronautical weather chart ! - Copyright ORBIFLY December 2007 - Disclaimer

ORBIFLY MET'MAP TEAM :

Programming & Development : Alexandra Zaïnal
Concept & original design : Baudouin d'Aumeries
Assistance for programming : Marc-Olivier Méhu
Technical & hardware support : Manuel Goepfert

Contact : metmap@orbifly.com




SOURCES & CREDITS :

   NOAA       Earth
Advisory